createdAt,value
2018-06-15T00:00:25.753Z,23.66
2018-06-15T00:03:00.133Z,23.60
2018-06-15T00:05:29.605Z,23.70
2018-06-15T00:07:58.883Z,23.75
2018-06-15T00:10:28.073Z,23.80
2018-06-15T00:12:57.605Z,23.64
2018-06-15T00:15:26.990Z,23.31
2018-06-15T00:17:56.117Z,23.51
2018-06-15T00:20:25.450Z,23.59
2018-06-15T00:22:54.737Z,23.75
2018-06-15T00:25:23.913Z,23.73
2018-06-15T00:27:53.039Z,23.67
2018-06-15T00:30:22.267Z,23.68
2018-06-15T00:32:51.532Z,23.63
2018-06-15T00:35:20.648Z,23.41
2018-06-15T00:37:49.806Z,23.08
2018-06-15T00:40:19.059Z,22.92
2018-06-15T00:42:48.196Z,22.45
2018-06-15T00:45:17.349Z,22.44
2018-06-15T00:47:46.554Z,22.45
2018-06-15T00:50:15.693Z,22.58
2018-06-15T00:52:44.898Z,22.71
2018-06-15T00:55:14.057Z,22.74
2018-06-15T00:57:48.078Z,22.82
2018-06-15T01:00:17.698Z,22.54
2018-06-15T01:02:46.964Z,22.42
2018-06-15T01:05:16.132Z,22.27
2018-06-15T01:07:45.321Z,22.20
2018-06-15T01:10:14.481Z,22.36
2018-06-15T01:12:43.651Z,22.28
2018-06-15T01:15:12.833Z,22.51
2018-06-15T01:17:42.064Z,22.65
2018-06-15T01:20:11.258Z,22.48
2018-06-15T01:22:40.453Z,22.11
2018-06-15T01:25:09.670Z,22.04
2018-06-15T01:27:38.956Z,22.26
2018-06-15T01:30:08.150Z,22.44
2018-06-15T01:32:37.332Z,22.18
2018-06-15T01:35:06.988Z,22.41
2018-06-15T01:37:36.151Z,22.37
2018-06-15T01:40:05.338Z,22.60
2018-06-15T01:42:34.515Z,22.60
2018-06-15T01:45:03.635Z,22.46
2018-06-15T01:47:32.758Z,22.41
2018-06-15T01:50:01.936Z,22.43
2018-06-15T01:52:31.120Z,22.67
2018-06-15T01:55:00.338Z,22.31
2018-06-15T01:57:29.507Z,22.45
2018-06-15T01:59:58.823Z,22.69
2018-06-15T02:02:28.029Z,22.92
2018-06-15T02:04:57.284Z,22.86
2018-06-15T02:07:26.445Z,22.76
2018-06-15T02:09:55.734Z,22.60
2018-06-15T02:12:24.943Z,22.86
2018-06-15T02:14:54.112Z,22.88
2018-06-15T02:17:23.543Z,22.73
2018-06-15T02:19:52.722Z,22.77
2018-06-15T02:22:22.056Z,22.70
2018-06-15T02:24:51.241Z,22.49
2018-06-15T02:27:20.545Z,22.55
2018-06-15T02:29:49.760Z,22.59
2018-06-15T02:32:19.028Z,22.51
2018-06-15T02:34:48.248Z,22.28
2018-06-15T02:37:17.379Z,22.20
2018-06-15T02:39:46.542Z,22.34
2018-06-15T02:42:15.741Z,22.07
2018-06-15T02:44:44.939Z,22.33
2018-06-15T02:47:14.106Z,22.46
2018-06-15T02:49:43.444Z,22.68
2018-06-15T02:52:12.817Z,22.27
2018-06-15T02:54:42.078Z,22.36
2018-06-15T02:57:11.636Z,22.69
2018-06-15T02:59:40.822Z,22.65
2018-06-15T03:02:10.106Z,22.53
2018-06-15T03:04:39.367Z,22.13
2018-06-15T03:07:08.570Z,22.40
2018-06-15T03:09:37.781Z,22.54
2018-06-15T03:12:07.022Z,22.74
2018-06-15T03:14:36.485Z,22.40
2018-06-15T03:17:05.637Z,22.46
2018-06-15T03:19:34.859Z,22.26
2018-06-15T03:22:04.057Z,22.32
2018-06-15T03:24:33.358Z,22.52
2018-06-15T03:27:02.697Z,22.71
2018-06-15T03:29:31.896Z,22.60
2018-06-15T03:32:01.052Z,23.01
2018-06-15T03:34:30.196Z,22.73
2018-06-15T03:36:59.346Z,22.97
2018-06-15T03:39:28.565Z,22.74
2018-06-15T03:41:57.693Z,22.62
2018-06-15T03:44:27.116Z,22.56
2018-06-15T03:46:56.370Z,22.82
2018-06-15T03:49:32.073Z,22.83
2018-06-15T03:52:01.393Z,22.67
2018-06-15T03:54:30.529Z,22.84
2018-06-15T03:57:00.061Z,22.91
2018-06-15T03:59:29.235Z,22.86
2018-06-15T04:01:58.462Z,23.09
2018-06-15T04:04:27.639Z,23.28
2018-06-15T04:06:56.871Z,23.19
2018-06-15T04:09:26.049Z,22.99
2018-06-15T04:11:55.302Z,22.95
2018-06-15T04:14:24.419Z,23.21
2018-06-15T04:16:53.697Z,23.20
2018-06-15T04:19:22.850Z,23.39
2018-06-15T04:21:51.996Z,23.55
2018-06-15T04:24:21.020Z,23.46
2018-06-15T04:26:50.149Z,23.63
2018-06-15T04:29:19.433Z,24.11
2018-06-15T04:31:48.707Z,23.89
2018-06-15T04:34:17.878Z,23.96
2018-06-15T04:36:46.914Z,23.88
2018-06-15T04:39:16.097Z,24.35
2018-06-15T04:41:45.307Z,24.36
2018-06-15T04:44:14.670Z,24.26
2018-06-15T04:46:43.889Z,24.22
2018-06-15T04:49:13.062Z,23.98
2018-06-15T04:51:42.273Z,23.98
2018-06-15T04:54:11.537Z,24.24
2018-06-15T04:56:40.832Z,24.35
2018-06-15T04:59:09.969Z,24.63
2018-06-15T05:01:39.196Z,24.34
2018-06-15T05:04:08.397Z,24.46
2018-06-15T05:06:37.594Z,24.64
2018-06-15T05:09:09.459Z,24.71
2018-06-15T05:11:38.662Z,24.98
2018-06-15T05:14:07.974Z,25.10
2018-06-15T05:16:37.185Z,25.24
2018-06-15T05:19:06.779Z,25.27
2018-06-15T05:21:36.043Z,25.48
2018-06-15T05:24:05.089Z,25.69
2018-06-15T05:26:34.282Z,25.64
2018-06-15T05:29:03.470Z,25.48
2018-06-15T05:31:32.646Z,25.44
2018-06-15T05:34:01.841Z,25.62
2018-06-15T05:36:31.030Z,25.74
2018-06-15T05:39:00.224Z,25.74
2018-06-15T05:41:29.460Z,25.66
2018-06-15T05:43:58.622Z,25.86
2018-06-15T05:46:27.818Z,26.00
2018-06-15T05:48:57.231Z,25.47
2018-06-15T05:51:26.418Z,25.68
2018-06-15T05:53:55.634Z,25.58
2018-06-15T05:56:24.932Z,25.66
2018-06-15T05:58:54.149Z,25.85
2018-06-15T06:01:23.374Z,25.96
2018-06-15T06:03:52.708Z,26.15
2018-06-15T06:06:22.138Z,25.86
2018-06-15T06:08:51.350Z,26.06
2018-06-15T06:11:20.778Z,26.26
2018-06-15T06:13:50.031Z,26.36
2018-06-15T06:16:19.217Z,26.56
2018-06-15T06:18:48.483Z,26.60
2018-06-15T06:21:17.634Z,26.80
2018-06-15T06:23:46.818Z,26.74
2018-06-15T06:26:16.000Z,26.79
2018-06-15T06:28:45.141Z,26.65
2018-06-15T06:31:15.081Z,26.66
2018-06-15T06:33:44.242Z,26.83
2018-06-15T06:36:13.531Z,27.04
2018-06-15T06:38:42.841Z,27.21
2018-06-15T06:41:12.054Z,27.02
2018-06-15T06:43:41.375Z,27.24
2018-06-15T06:46:10.582Z,27.42
2018-06-15T06:48:39.876Z,27.38
2018-06-15T06:51:09.096Z,27.44
2018-06-15T06:53:38.223Z,27.28
2018-06-15T06:56:07.498Z,27.16
2018-06-15T06:58:36.740Z,26.85
2018-06-15T07:01:05.905Z,26.61
2018-06-15T07:03:35.106Z,26.85
2018-06-15T07:06:04.412Z,27.06
2018-06-15T07:08:33.753Z,26.85
2018-06-15T07:11:02.923Z,26.84
2018-06-15T07:13:32.069Z,27.27
2018-06-15T07:16:01.307Z,27.30
2018-06-15T07:18:30.481Z,27.10
2018-06-15T07:20:59.873Z,27.48
2018-06-15T07:23:29.155Z,27.59
2018-06-15T07:25:58.437Z,28.05
2018-06-15T07:28:27.632Z,27.87
2018-06-15T07:30:56.839Z,27.94
2018-06-15T07:33:26.174Z,28.06
2018-06-15T07:35:55.518Z,28.32
2018-06-15T07:38:24.677Z,28.88
2018-06-15T07:40:54.004Z,28.53
2018-06-15T07:43:23.321Z,28.19
2018-06-15T07:45:52.622Z,28.07
2018-06-15T07:48:21.779Z,28.80
2018-06-15T07:50:51.029Z,28.43
2018-06-15T07:53:20.212Z,29.00
2018-06-15T07:55:49.410Z,29.66
2018-06-15T07:58:18.685Z,30.02
2018-06-15T08:00:47.898Z,30.56
2018-06-15T08:03:17.107Z,30.46
2018-06-15T08:05:46.260Z,31.10
2018-06-15T08:08:15.503Z,31.83
2018-06-15T08:10:44.740Z,30.89
2018-06-15T08:13:14.214Z,31.33
2018-06-15T08:15:43.388Z,31.87
2018-06-15T08:18:12.583Z,32.39
2018-06-15T08:20:41.778Z,31.98
2018-06-15T08:23:10.949Z,32.16
2018-06-15T08:25:43.176Z,32.75
2018-06-15T08:28:12.389Z,32.68
2018-06-15T08:30:41.555Z,32.98
2018-06-15T08:33:10.721Z,33.08
2018-06-15T08:35:39.942Z,33.44
2018-06-15T08:38:09.144Z,33.71
2018-06-15T08:40:38.353Z,33.42
2018-06-15T08:43:07.549Z,33.09
2018-06-15T08:45:37.426Z,32.93
2018-06-15T08:48:06.681Z,31.76
2018-06-15T08:50:36.169Z,31.35
2018-06-15T08:53:05.517Z,31.34
2018-06-15T08:55:34.696Z,31.64
2018-06-15T08:58:03.949Z,31.98
2018-06-15T09:00:33.285Z,32.89
2018-06-15T09:03:02.706Z,33.23
2018-06-15T09:05:31.994Z,32.86
2018-06-15T09:08:01.234Z,32.59
2018-06-15T09:10:30.720Z,31.80
2018-06-15T09:12:59.938Z,31.76
2018-06-15T09:15:28.961Z,32.11
2018-06-15T09:17:58.165Z,32.61
2018-06-15T09:20:27.285Z,32.79
2018-06-15T09:22:57.274Z,32.76
2018-06-15T09:25:26.467Z,32.62
2018-06-15T09:27:55.583Z,32.26
2018-06-15T09:30:24.765Z,32.16
2018-06-15T09:32:53.963Z,31.85
2018-06-15T09:35:23.178Z,31.65
2018-06-15T09:37:52.460Z,31.79
2018-06-15T09:40:21.696Z,31.49
2018-06-15T09:42:50.873Z,31.79
2018-06-15T09:45:20.215Z,32.37
2018-06-15T09:47:49.335Z,33.00
2018-06-15T09:50:18.510Z,33.18
2018-06-15T09:52:47.726Z,32.67
2018-06-15T09:55:16.877Z,32.38
2018-06-15T09:57:46.006Z,32.47
2018-06-15T10:00:23.966Z,32.38
2018-06-15T10:02:53.147Z,32.54
2018-06-15T10:05:22.345Z,32.92
2018-06-15T10:07:51.474Z,33.33
2018-06-15T10:10:20.616Z,33.40
2018-06-15T10:12:49.816Z,33.40
2018-06-15T10:15:18.931Z,33.59
2018-06-15T10:17:48.265Z,33.49
2018-06-15T10:20:17.398Z,32.53
2018-06-15T10:22:46.506Z,32.25
2018-06-15T10:25:15.695Z,32.71
2018-06-15T10:27:44.873Z,32.72
2018-06-15T10:30:14.041Z,32.63
2018-06-15T10:32:43.387Z,32.48
2018-06-15T10:35:12.579Z,31.50
2018-06-15T10:37:41.756Z,30.93
2018-06-15T10:40:10.960Z,31.07
2018-06-15T10:42:40.126Z,31.50
2018-06-15T10:45:09.393Z,33.14
2018-06-15T10:47:38.578Z,34.31
2018-06-15T10:50:07.730Z,35.35
2018-06-15T10:52:36.848Z,35.87
2018-06-15T10:55:06.885Z,35.16
2018-06-15T10:57:36.038Z,35.33
2018-06-15T11:00:05.347Z,35.06
2018-06-15T11:02:34.622Z,34.64
2018-06-15T11:05:03.767Z,34.39
2018-06-15T11:07:32.961Z,33.90
2018-06-15T11:10:02.140Z,33.27
2018-06-15T11:12:31.447Z,32.57
2018-06-15T11:15:00.611Z,32.36
2018-06-15T11:17:29.914Z,32.74
2018-06-15T11:19:59.094Z,32.23
2018-06-15T11:22:28.262Z,31.96
2018-06-15T11:24:57.442Z,32.16
2018-06-15T11:27:26.585Z,32.47
2018-06-15T11:29:55.833Z,32.62
2018-06-15T11:32:25.000Z,32.66
2018-06-15T11:34:54.156Z,32.66
2018-06-15T11:37:23.432Z,32.59
2018-06-15T11:39:52.601Z,32.83
2018-06-15T11:42:21.870Z,32.69
2018-06-15T11:44:51.091Z,33.07
2018-06-15T11:47:20.308Z,33.53
2018-06-15T11:49:49.594Z,33.32
2018-06-15T11:52:18.828Z,31.76
2018-06-15T11:54:48.068Z,32.17
2018-06-15T11:57:17.231Z,32.26
2018-06-15T11:59:46.349Z,31.15
2018-06-15T12:02:15.628Z,30.23
2018-06-15T12:04:44.975Z,30.23
2018-06-15T12:07:14.192Z,30.45
2018-06-15T12:09:43.683Z,30.22
2018-06-15T12:12:12.863Z,30.20
2018-06-15T12:14:42.127Z,28.65
2018-06-15T12:17:11.393Z,29.16
2018-06-15T12:19:40.667Z,29.92
2018-06-15T12:22:09.891Z,29.89
2018-06-15T12:24:39.038Z,29.99
2018-06-15T12:27:08.313Z,-141.23
2018-06-15T12:29:37.638Z,-141.23
2018-06-15T12:32:07.086Z,-141.23
2018-06-15T12:34:36.360Z,-141.23
2018-06-15T12:37:05.580Z,-141.23
2018-06-15T12:39:35.396Z,-141.23
2018-06-15T12:42:05.746Z,-141.23
2018-06-15T12:44:35.285Z,-141.23
2018-06-15T12:47:04.518Z,-141.23
2018-06-15T12:49:33.975Z,-141.23
2018-06-15T12:52:03.350Z,-141.23
2018-06-15T12:54:32.663Z,-141.23
2018-06-15T12:57:02.153Z,-141.23
2018-06-15T12:59:31.379Z,-141.23
2018-06-15T13:02:01.247Z,-141.23
2018-06-15T13:04:31.197Z,-141.23
2018-06-15T13:07:00.669Z,-141.23
2018-06-15T13:09:29.980Z,-141.23
2018-06-15T13:11:59.578Z,-141.23
2018-06-15T13:14:29.057Z,-141.23
2018-06-15T13:16:58.455Z,-141.23
